sensor_id;sensor_type;location;lat;lon;timestamp;temperature;humidity
9965;DHT22;5023;53.554;9.964;2022-12-10T00:04:15;0.80;99.90
9965;DHT22;5023;53.554;9.964;2022-12-10T00:09:59;0.80;99.90
9965;DHT22;5023;53.554;9.964;2022-12-10T00:15:02;0.70;99.90
9965;DHT22;5023;53.554;9.964;2022-12-10T00:20:24;0.70;99.90
9965;DHT22;5023;53.554;9.964;2022-12-10T00:32:42;0.70;99.90
9965;DHT22;5023;53.554;9.964;2022-12-10T00:38:23;0.70;99.90
9965;DHT22;5023;53.554;9.964;2022-12-10T00:43:47;0.80;99.90
9965;DHT22;5023;53.554;9.964;2022-12-10T00:49:22;0.80;99.90
9965;DHT22;5023;53.554;9.964;2022-12-10T00:54:28;0.70;99.90
9965;DHT22;5023;53.554;9.964;2022-12-10T01:00:13;0.90;99.90
9965;DHT22;5023;53.554;9.964;2022-12-10T01:05:39;0.60;99.90
9965;DHT22;5023;53.554;9.964;2022-12-10T01:11:06;0.40;99.90
9965;DHT22;5023;53.554;9.964;2022-12-10T01:16:13;0.50;99.90
9965;DHT22;5023;53.554;9.964;2022-12-10T01:22:12;0.60;99.90
9965;DHT22;5023;53.554;9.964;2022-12-10T01:28:57;0.80;99.90
9965;DHT22;5023;53.554;9.964;2022-12-10T01:33:51;0.80;99.90
9965;DHT22;5023;53.554;9.964;2022-12-10T01:39:46;0.60;99.90
9965;DHT22;5023;53.554;9.964;2022-12-10T01:45:33;0.40;99.90
9965;DHT22;5023;53.554;9.964;2022-12-10T01:50:53;0.40;99.90
9965;DHT22;5023;53.554;9.964;2022-12-10T01:56:21;0.60;99.90
9965;DHT22;5023;53.554;9.964;2022-12-10T02:01:45;0.70;99.90
9965;DHT22;5023;53.554;9.964;2022-12-10T02:06:57;0.70;99.90
9965;DHT22;5023;53.554;9.964;2022-12-10T02:12:31;0.80;99.90
9965;DHT22;5023;53.554;9.964;2022-12-10T02:18:32;0.80;99.90
9965;DHT22;5023;53.554;9.964;2022-12-10T02:24:16;0.80;99.90
9965;DHT22;5023;53.554;9.964;2022-12-10T02:30:00;0.80;99.90
9965;DHT22;5023;53.554;9.964;2022-12-10T02:35:11;0.70;99.90
9965;DHT22;5023;53.554;9.964;2022-12-10T02:40:52;0.70;99.90
9965;DHT22;5023;53.554;9.964;2022-12-10T02:46:10;0.80;99.90
9965;DHT22;5023;53.554;9.964;2022-12-10T02:58:59;0.80;99.90
9965;DHT22;5023;53.554;9.964;2022-12-10T03:04:47;0.90;99.90
9965;DHT22;5023;53.554;9.964;2022-12-10T03:10:42;0.90;99.90
9965;DHT22;5023;53.554;9.964;2022-12-10T03:16:13;0.90;99.90
9965;DHT22;5023;53.554;9.964;2022-12-10T03:21:52;0.90;99.90
9965;DHT22;5023;53.554;9.964;2022-12-10T03:27:34;0.90;99.90
9965;DHT22;5023;53.554;9.964;2022-12-10T03:33:10;0.80;99.90
9965;DHT22;5023;53.554;9.964;2022-12-10T03:38:59;0.80;99.90
9965;DHT22;5023;53.554;9.964;2022-12-10T03:45:15;0.70;99.90
9965;DHT22;5023;53.554;9.964;2022-12-10T03:50:50;0.80;99.90
9965;DHT22;5023;53.554;9.964;2022-12-10T03:56:33;0.80;99.90
9965;DHT22;5023;53.554;9.964;2022-12-10T04:02:13;0.90;99.90
9965;DHT22;5023;53.554;9.964;2022-12-10T04:07:18;0.80;99.90
9965;DHT22;5023;53.554;9.964;2022-12-10T04:13:12;0.90;99.90
9965;DHT22;5023;53.554;9.964;2022-12-10T04:19:01;0.90;99.90
9965;DHT22;5023;53.554;9.964;2022-12-10T04:24:42;0.90;99.90
9965;DHT22;5023;53.554;9.964;2022-12-10T04:30:05;0.70;99.90
9965;DHT22;5023;53.554;9.964;2022-12-10T04:36:15;0.70;99.90
9965;DHT22;5023;53.554;9.964;2022-12-10T04:42:20;1.00;99.90
9965;DHT22;5023;53.554;9.964;2022-12-10T04:48:19;0.90;99.90
9965;DHT22;5023;53.554;9.964;2022-12-10T04:53:44;1.00;99.90
9965;DHT22;5023;53.554;9.964;2022-12-10T04:58:48;1.00;99.90
9965;DHT22;5023;53.554;9.964;2022-12-10T05:04:07;1.10;99.90
9965;DHT22;5023;53.554;9.964;2022-12-10T05:09:37;1.00;99.90
9965;DHT22;5023;53.554;9.964;2022-12-10T05:14:40;1.00;99.90
9965;DHT22;5023;53.554;9.964;2022-12-10T05:20:20;1.00;99.90
9965;DHT22;5023;53.554;9.964;2022-12-10T05:26:05;1.10;99.90
9965;DHT22;5023;53.554;9.964;2022-12-10T05:31:52;1.00;99.90
9965;DHT22;5023;53.554;9.964;2022-12-10T05:37:47;1.10;99.90
9965;DHT22;5023;53.554;9.964;2022-12-10T05:43:19;1.20;99.90
9965;DHT22;5023;53.554;9.964;2022-12-10T05:49:15;0.90;99.90
9965;DHT22;5023;53.554;9.964;2022-12-10T05:54:46;0.90;99.90
9965;DHT22;5023;53.554;9.964;2022-12-10T06:00:39;1.00;99.90
9965;DHT22;5023;53.554;9.964;2022-12-10T06:06:56;0.80;99.90
9965;DHT22;5023;53.554;9.964;2022-12-10T06:12:16;0.70;99.90
9965;DHT22;5023;53.554;9.964;2022-12-10T06:17:54;0.70;99.90
9965;DHT22;5023;53.554;9.964;2022-12-10T06:23:31;0.70;99.90
9965;DHT22;5023;53.554;9.964;2022-12-10T06:29:10;1.00;99.90
9965;DHT22;5023;53.554;9.964;2022-12-10T06:34:31;1.10;99.90
9965;DHT22;5023;53.554;9.964;2022-12-10T06:39:47;1.00;99.90
9965;DHT22;5023;53.554;9.964;2022-12-10T06:44:53;0.90;99.90
9965;DHT22;5023;53.554;9.964;2022-12-10T06:50:52;0.80;99.90
9965;DHT22;5023;53.554;9.964;2022-12-10T06:56:28;0.90;99.90
9965;DHT22;5023;53.554;9.964;2022-12-10T07:01:41;0.80;99.90
9965;DHT22;5023;53.554;9.964;2022-12-10T07:13:25;0.60;99.90
9965;DHT22;5023;53.554;9.964;2022-12-10T07:18:43;0.70;99.90
9965;DHT22;5023;53.554;9.964;2022-12-10T07:24:07;0.60;99.90
9965;DHT22;5023;53.554;9.964;2022-12-10T07:30:01;0.50;99.90
9965;DHT22;5023;53.554;9.964;2022-12-10T07:35:51;0.40;99.90
9965;DHT22;5023;53.554;9.964;2022-12-10T07:41:40;0.40;99.90
9965;DHT22;5023;53.554;9.964;2022-12-10T07:46:44;0.50;99.90
9965;DHT22;5023;53.554;9.964;2022-12-10T07:57:45;0.30;99.90
9965;DHT22;5023;53.554;9.964;2022-12-10T08:09:41;0.30;99.90
9965;DHT22;5023;53.554;9.964;2022-12-10T08:15:19;0.50;99.90
9965;DHT22;5023;53.554;9.964;2022-12-10T08:20:29;0.70;99.90
9965;DHT22;5023;53.554;9.964;2022-12-10T08:26:29;0.80;99.90
9965;DHT22;5023;53.554;9.964;2022-12-10T08:32:06;0.80;99.90
9965;DHT22;5023;53.554;9.964;2022-12-10T08:37:08;0.80;99.90
9965;DHT22;5023;53.554;9.964;2022-12-10T08:43:04;0.90;99.90
9965;DHT22;5023;53.554;9.964;2022-12-10T08:48:36;0.50;99.90
9965;DHT22;5023;53.554;9.964;2022-12-10T08:54:24;0.30;99.90
9965;DHT22;5023;53.554;9.964;2022-12-10T09:00:02;0.30;99.90
9965;DHT22;5023;53.554;9.964;2022-12-10T09:05:45;0.30;99.90
9965;DHT22;5023;53.554;9.964;2022-12-10T09:11:26;1.80;99.90
9965;DHT22;5023;53.554;9.964;2022-12-10T09:17:09;2.20;99.90
9965;DHT22;5023;53.554;9.964;2022-12-10T09:22:50;2.30;99.90
9965;DHT22;5023;53.554;9.964;2022-12-10T09:27:52;1.80;99.90
9965;DHT22;5023;53.554;9.964;2022-12-10T09:33:29;2.50;99.90
9965;DHT22;5023;53.554;9.964;2022-12-10T09:39:05;3.20;99.90
9965;DHT22;5023;53.554;9.964;2022-12-10T09:44:15;3.50;99.90
9965;DHT22;5023;53.554;9.964;2022-12-10T09:50:20;3.70;99.90
9965;DHT22;5023;53.554;9.964;2022-12-10T09:55:58;3.70;99.90
9965;DHT22;5023;53.554;9.964;2022-12-10T10:02:20;3.10;99.90
9965;DHT22;5023;53.554;9.964;2022-12-10T10:08:18;3.30;99.90
9965;DHT22;5023;53.554;9.964;2022-12-10T10:13:58;3.20;99.90
9965;DHT22;5023;53.554;9.964;2022-12-10T10:19:47;3.40;99.90
9965;DHT22;5023;53.554;9.964;2022-12-10T10:25:24;3.40;99.90
9965;DHT22;5023;53.554;9.964;2022-12-10T10:31:00;3.00;99.90
9965;DHT22;5023;53.554;9.964;2022-12-10T10:36:10;3.30;99.90
9965;DHT22;5023;53.554;9.964;2022-12-10T10:48:09;3.50;99.90
9965;DHT22;5023;53.554;9.964;2022-12-10T10:53:46;3.50;99.90
9965;DHT22;5023;53.554;9.964;2022-12-10T11:05:32;3.50;99.90
9965;DHT22;5023;53.554;9.964;2022-12-10T11:11:12;1.90;99.90
9965;DHT22;5023;53.554;9.964;2022-12-10T11:17:18;1.60;99.90
9965;DHT22;5023;53.554;9.964;2022-12-10T11:23:19;1.30;99.90
9965;DHT22;5023;53.554;9.964;2022-12-10T11:29:32;0.90;99.90
9965;DHT22;5023;53.554;9.964;2022-12-10T11:35:14;0.90;99.90
9965;DHT22;5023;53.554;9.964;2022-12-10T11:41:05;0.90;99.90
9965;DHT22;5023;53.554;9.964;2022-12-10T11:47:22;1.40;99.90
9965;DHT22;5023;53.554;9.964;2022-12-10T11:53:19;1.50;99.90
9965;DHT22;5023;53.554;9.964;2022-12-10T11:59:23;2.10;99.90
9965;DHT22;5023;53.554;9.964;2022-12-10T12:05:24;2.50;99.90
9965;DHT22;5023;53.554;9.964;2022-12-10T12:11:19;2.60;99.90
9965;DHT22;5023;53.554;9.964;2022-12-10T12:17:06;2.80;99.90
9965;DHT22;5023;53.554;9.964;2022-12-10T12:22:15;2.70;99.90
9965;DHT22;5023;53.554;9.964;2022-12-10T12:34:05;1.70;99.90
9965;DHT22;5023;53.554;9.964;2022-12-10T12:40:09;1.30;99.90
9965;DHT22;5023;53.554;9.964;2022-12-10T12:45:46;1.10;99.90
9965;DHT22;5023;53.554;9.964;2022-12-10T12:51:32;0.90;99.90
9965;DHT22;5023;53.554;9.964;2022-12-10T12:57:17;0.70;99.90
9965;DHT22;5023;53.554;9.964;2022-12-10T13:03:00;0.50;99.90
9965;DHT22;5023;53.554;9.964;2022-12-10T13:08:47;0.60;99.90
9965;DHT22;5023;53.554;9.964;2022-12-10T13:14:33;0.70;99.90
9965;DHT22;5023;53.554;9.964;2022-12-10T13:20:34;0.70;99.90
9965;DHT22;5023;53.554;9.964;2022-12-10T13:26:28;0.80;99.90
9965;DHT22;5023;53.554;9.964;2022-12-10T13:32:44;0.70;99.90
9965;DHT22;5023;53.554;9.964;2022-12-10T13:49:44;0.60;99.90
9965;DHT22;5023;53.554;9.964;2022-12-10T13:55:49;0.60;99.90
9965;DHT22;5023;53.554;9.964;2022-12-10T14:01:37;0.70;99.90
9965;DHT22;5023;53.554;9.964;2022-12-10T14:07:34;0.80;99.90
9965;DHT22;5023;53.554;9.964;2022-12-10T14:13:15;0.70;99.90
9965;DHT22;5023;53.554;9.964;2022-12-10T14:18:55;0.60;99.90
9965;DHT22;5023;53.554;9.964;2022-12-10T14:24:36;0.60;99.90
9965;DHT22;5023;53.554;9.964;2022-12-10T14:30:17;0.70;99.90
9965;DHT22;5023;53.554;9.964;2022-12-10T14:42:16;0.80;99.90
9965;DHT22;5023;53.554;9.964;2022-12-10T15:00:18;0.80;99.90
9965;DHT22;5023;53.554;9.964;2022-12-10T15:06:00;0.90;99.90
9965;DHT22;5023;53.554;9.964;2022-12-10T15:11:26;0.90;99.90
9965;DHT22;5023;53.554;9.964;2022-12-10T15:23:16;0.80;99.90
9965;DHT22;5023;53.554;9.964;2022-12-10T15:29:31;0.80;99.90
9965;DHT22;5023;53.554;9.964;2022-12-10T15:35:15;0.50;99.90
9965;DHT22;5023;53.554;9.964;2022-12-10T15:40:50;0.40;99.90
9965;DHT22;5023;53.554;9.964;2022-12-10T15:52:29;0.20;99.90
9965;DHT22;5023;53.554;9.964;2022-12-10T15:58:21;0.10;99.90
9965;DHT22;5023;53.554;9.964;2022-12-10T16:04:05;0.10;99.90
9965;DHT22;5023;53.554;9.964;2022-12-10T16:09:36;0.20;99.90
9965;DHT22;5023;53.554;9.964;2022-12-10T16:21:22;0.10;99.90
9965;DHT22;5023;53.554;9.964;2022-12-10T16:27:22;0.10;99.90
9965;DHT22;5023;53.554;9.964;2022-12-10T16:32:53;0.00;99.90
9965;DHT22;5023;53.554;9.964;2022-12-10T16:44:43;-0.10;99.90
9965;DHT22;5023;53.554;9.964;2022-12-10T16:50:19;-0.20;99.90
9965;DHT22;5023;53.554;9.964;2022-12-10T17:02:19;-0.30;99.90
9965;DHT22;5023;53.554;9.964;2022-12-10T17:08:06;-0.40;99.90
9965;DHT22;5023;53.554;9.964;2022-12-10T17:13:53;-0.40;99.90
9965;DHT22;5023;53.554;9.964;2022-12-10T17:19:46;-0.40;99.90
9965;DHT22;5023;53.554;9.964;2022-12-10T17:31:45;-0.40;99.90
9965;DHT22;5023;53.554;9.964;2022-12-10T17:37:30;-0.50;99.90
9965;DHT22;5023;53.554;9.964;2022-12-10T17:43:05;-0.40;99.90
9965;DHT22;5023;53.554;9.964;2022-12-10T17:54:45;-0.40;99.90
9965;DHT22;5023;53.554;9.964;2022-12-10T18:00:24;-0.70;99.90
9965;DHT22;5023;53.554;9.964;2022-12-10T18:06:00;-0.30;99.90
9965;DHT22;5023;53.554;9.964;2022-12-10T18:18:04;-0.40;99.90
9965;DHT22;5023;53.554;9.964;2022-12-10T18:24:00;-0.40;99.90
9965;DHT22;5023;53.554;9.964;2022-12-10T18:29:45;-0.50;99.90
9965;DHT22;5023;53.554;9.964;2022-12-10T18:35:20;-0.50;99.90
9965;DHT22;5023;53.554;9.964;2022-12-10T18:40:59;-0.60;99.90
9965;DHT22;5023;53.554;9.964;2022-12-10T18:46:38;-0.70;99.90
9965;DHT22;5023;53.554;9.964;2022-12-10T18:52:14;-0.70;99.90
9965;DHT22;5023;53.554;9.964;2022-12-10T18:57:51;-0.70;99.90
9965;DHT22;5023;53.554;9.964;2022-12-10T19:04:00;-0.70;99.90
9965;DHT22;5023;53.554;9.964;2022-12-10T19:09:34;-0.70;99.90
9965;DHT22;5023;53.554;9.964;2022-12-10T19:14:42;-0.70;99.90
9965;DHT22;5023;53.554;9.964;2022-12-10T19:20:29;-0.60;99.90
9965;DHT22;5023;53.554;9.964;2022-12-10T19:26:29;-0.60;99.90
9965;DHT22;5023;53.554;9.964;2022-12-10T19:31:42;-0.60;99.90
9965;DHT22;5023;53.554;9.964;2022-12-10T19:37:40;-0.60;99.90
9965;DHT22;5023;53.554;9.964;2022-12-10T20:01:39;-0.70;99.90
9965;DHT22;5023;53.554;9.964;2022-12-10T20:07:17;-0.60;99.90
9965;DHT22;5023;53.554;9.964;2022-12-10T20:13:04;-0.50;99.90
9965;DHT22;5023;53.554;9.964;2022-12-10T20:19:04;-0.60;99.90
9965;DHT22;5023;53.554;9.964;2022-12-10T20:36:41;-0.60;99.90
9965;DHT22;5023;53.554;9.964;2022-12-10T20:42:20;-0.60;99.90
9965;DHT22;5023;53.554;9.964;2022-12-10T20:47:59;-0.60;99.90
9965;DHT22;5023;53.554;9.964;2022-12-10T20:53:55;-0.60;99.90
9965;DHT22;5023;53.554;9.964;2022-12-10T20:59:36;-0.60;99.90
9965;DHT22;5023;53.554;9.964;2022-12-10T21:05:39;-0.60;99.90
9965;DHT22;5023;53.554;9.964;2022-12-10T21:10:42;-0.50;99.90
9965;DHT22;5023;53.554;9.964;2022-12-10T21:16:32;-0.50;99.90
9965;DHT22;5023;53.554;9.964;2022-12-10T21:28:06;-0.60;99.90
9965;DHT22;5023;53.554;9.964;2022-12-10T21:33:43;-0.40;99.90
9965;DHT22;5023;53.554;9.964;2022-12-10T21:39:19;-0.50;99.90
9965;DHT22;5023;53.554;9.964;2022-12-10T21:50:21;-0.50;99.90
9965;DHT22;5023;53.554;9.964;2022-12-10T21:56:04;-0.40;99.90
9965;DHT22;5023;53.554;9.964;2022-12-10T22:02:07;-0.60;99.90
9965;DHT22;5023;53.554;9.964;2022-12-10T22:07:46;-0.50;99.90
9965;DHT22;5023;53.554;9.964;2022-12-10T22:13:23;-0.50;99.90
9965;DHT22;5023;53.554;9.964;2022-12-10T22:18:46;-0.60;99.90
9965;DHT22;5023;53.554;9.964;2022-12-10T22:24:32;-0.70;99.90
9965;DHT22;5023;53.554;9.964;2022-12-10T22:30:09;-0.60;99.90
9965;DHT22;5023;53.554;9.964;2022-12-10T22:41:45;-0.40;99.90
9965;DHT22;5023;53.554;9.964;2022-12-10T22:47:22;-0.60;99.90
9965;DHT22;5023;53.554;9.964;2022-12-10T22:53:03;-0.80;99.90
9965;DHT22;5023;53.554;9.964;2022-12-10T22:59:05;-0.80;99.90
9965;DHT22;5023;53.554;9.964;2022-12-10T23:04:46;-0.60;99.90
9965;DHT22;5023;53.554;9.964;2022-12-10T23:10:22;-0.70;99.90
9965;DHT22;5023;53.554;9.964;2022-12-10T23:16:11;-0.80;99.90
9965;DHT22;5023;53.554;9.964;2022-12-10T23:21:47;-0.70;99.90
9965;DHT22;5023;53.554;9.964;2022-12-10T23:27:21;-0.80;99.90
9965;DHT22;5023;53.554;9.964;2022-12-10T23:32:27;-0.90;99.90
9965;DHT22;5023;53.554;9.964;2022-12-10T23:38:06;-1.00;99.90
9965;DHT22;5023;53.554;9.964;2022-12-10T23:43:41;-1.00;99.90
9965;DHT22;5023;53.554;9.964;2022-12-10T23:55:32;-1.10;99.90
